TNCA/AUA METAR and TAF weather

Enter ICAO airport designator
Station Type Date Time Source
TNCA METAR 2020/04/05 21:00 UTC NOAA

TNCA 052100Z 08021KT 9999 FEW020 30/24 Q1009 NOSIG


Station Type Date Time Source
TNCA Decoded METAR 2020/04/05 21:00 UTC NOAA

Queen Beatrix Airport, Aruba (TNCA) 12-30N 070-01W 33M
Apr 05, 2020 - 05:00 PM EDT / 2020.04.05 2100 UTC
Wind: from the E (080 degrees) at 24 MPH (21 KT):0
Visibility: greater than 7 mile(s):0
Sky conditions: mostly clear
Temperature: 86 F (30 C)
Heat index: 95.0 F (35.0 C):1
Dew Point: 75 F (24 C)
Relative Humidity: 70%
Pressure (altimeter): 29.80 in. Hg (1009 hPa)
ob: TNCA 052100Z 08021KT 9999 FEW020 30/24 Q1009 NOSIG
cycle: 21

Station Type Date Time Source
TNCA TAF 2020/04/05 18:25 UTC NOAA

TAF TNCA 051717Z 0518/0618 08021KT 9999 FEW025

Example: see airport list